createdAt,value
2018-06-04T00:00:28.831Z,17.05
2018-06-04T00:01:33.697Z,17.00
2018-06-04T00:02:38.491Z,16.92
2018-06-04T00:03:43.173Z,16.91
2018-06-04T00:04:47.857Z,16.85
2018-06-04T00:05:52.569Z,16.88
2018-06-04T00:06:58.346Z,16.94
2018-06-04T00:08:03.017Z,16.85
2018-06-04T00:09:08.109Z,16.78
2018-06-04T00:10:12.803Z,16.76
2018-06-04T00:11:17.638Z,16.71
2018-06-04T00:12:22.266Z,16.62
2018-06-04T00:13:27.232Z,16.60
2018-06-04T00:14:31.893Z,16.44
2018-06-04T00:15:36.558Z,16.21
2018-06-04T00:16:41.231Z,16.12
2018-06-04T00:17:45.908Z,16.23
2018-06-04T00:18:50.609Z,16.38
2018-06-04T00:19:55.554Z,16.51
2018-06-04T00:21:00.218Z,16.56
2018-06-04T00:22:04.900Z,16.57
2018-06-04T00:23:09.881Z,16.65
2018-06-04T00:24:14.534Z,16.71
2018-06-04T00:25:19.196Z,16.64
2018-06-04T00:26:24.162Z,16.70
2018-06-04T00:27:28.870Z,16.68
2018-06-04T00:28:33.567Z,16.53
2018-06-04T00:29:38.765Z,16.40
2018-06-04T00:30:43.399Z,16.39
2018-06-04T00:31:48.074Z,16.48
2018-06-04T00:32:53.179Z,16.41
2018-06-04T00:33:57.811Z,16.49
2018-06-04T00:35:02.504Z,16.41
2018-06-04T00:36:07.173Z,16.26
2018-06-04T00:37:11.874Z,16.15
2018-06-04T00:38:16.498Z,16.15
2018-06-04T00:39:21.464Z,16.21
2018-06-04T00:40:26.120Z,16.26
2018-06-04T00:41:30.753Z,16.24
2018-06-04T00:42:35.513Z,16.25
2018-06-04T00:43:40.224Z,16.34
2018-06-04T00:44:44.920Z,16.37
2018-06-04T00:45:49.898Z,16.32
2018-06-04T00:46:54.581Z,16.34
2018-06-04T00:47:59.296Z,16.33
2018-06-04T00:49:03.960Z,16.38
2018-06-04T00:50:08.605Z,16.41
2018-06-04T00:51:13.290Z,16.42
2018-06-04T00:52:18.209Z,16.39
2018-06-04T00:53:22.906Z,16.25
2018-06-04T00:54:27.558Z,16.25
2018-06-04T00:55:33.783Z,16.30
2018-06-04T00:56:38.449Z,16.30
2018-06-04T00:57:43.168Z,16.28
2018-06-04T00:58:48.101Z,16.25
2018-06-04T00:59:52.762Z,16.23
2018-06-04T01:00:57.476Z,16.20
2018-06-04T01:02:02.172Z,16.21
2018-06-04T01:03:06.827Z,16.29
2018-06-04T01:04:11.497Z,16.12
2018-06-04T01:05:16.460Z,15.81
2018-06-04T01:06:21.135Z,15.80
2018-06-04T01:07:25.777Z,15.65
2018-06-04T01:08:30.417Z,15.57
2018-06-04T01:09:35.070Z,15.67
2018-06-04T01:10:40.327Z,15.83
2018-06-04T01:11:45.329Z,15.88
2018-06-04T01:12:49.991Z,15.91
2018-06-04T01:13:55.069Z,15.92
2018-06-04T01:15:00.486Z,15.87
2018-06-04T01:16:05.152Z,15.84
2018-06-04T01:17:09.839Z,15.84
2018-06-04T01:18:14.812Z,15.79
2018-06-04T01:19:20.062Z,15.84
2018-06-04T01:20:24.700Z,15.82
2018-06-04T01:21:29.344Z,15.85
2018-06-04T01:22:34.013Z,15.84
2018-06-04T01:23:38.627Z,15.88
2018-06-04T01:24:43.594Z,15.93
2018-06-04T01:25:48.213Z,15.88
2018-06-04T01:26:52.933Z,15.85
2018-06-04T01:27:57.580Z,15.90
2018-06-04T01:29:02.265Z,15.90
2018-06-04T01:30:06.890Z,15.95
2018-06-04T01:31:11.817Z,15.98
2018-06-04T01:32:16.456Z,15.90
2018-06-04T01:33:21.128Z,15.92
2018-06-04T01:34:25.768Z,15.89
2018-06-04T01:35:30.440Z,15.90
2018-06-04T01:36:35.106Z,15.86
2018-06-04T01:37:40.870Z,15.75
2018-06-04T01:38:45.624Z,15.68
2018-06-04T01:39:50.602Z,15.73
2018-06-04T01:40:55.278Z,15.86
2018-06-04T01:41:59.918Z,15.91
2018-06-04T01:43:04.541Z,15.96
2018-06-04T01:44:09.485Z,15.97
2018-06-04T01:45:14.134Z,15.87
2018-06-04T01:46:18.754Z,15.72
2018-06-04T01:47:23.396Z,15.69
2018-06-04T01:48:28.005Z,15.59
2018-06-04T01:49:32.621Z,15.63
2018-06-04T01:50:37.601Z,15.75
2018-06-04T01:51:42.285Z,15.82
2018-06-04T01:52:46.948Z,15.78
2018-06-04T01:53:51.650Z,15.61
2018-06-04T01:54:56.273Z,15.48
2018-06-04T01:56:00.934Z,15.47
2018-06-04T01:57:05.863Z,15.54
2018-06-04T01:58:10.507Z,15.59
2018-06-04T01:59:15.169Z,15.62
2018-06-04T02:00:19.853Z,15.65
2018-06-04T02:01:24.495Z,15.70
2018-06-04T02:02:29.200Z,15.60
2018-06-04T02:03:34.176Z,15.38
2018-06-04T02:04:38.807Z,15.20
2018-06-04T02:05:43.442Z,15.25
2018-06-04T02:06:48.125Z,15.26
2018-06-04T02:07:52.832Z,15.21
2018-06-04T02:08:57.480Z,15.20
2018-06-04T02:10:02.417Z,15.19
2018-06-04T02:11:07.105Z,15.18
2018-06-04T02:12:11.760Z,15.05
2018-06-04T02:13:16.440Z,14.98
2018-06-04T02:14:21.090Z,14.92
2018-06-04T02:15:25.743Z,14.94
2018-06-04T02:16:30.685Z,14.94
2018-06-04T02:17:35.363Z,14.86
2018-06-04T02:18:39.997Z,14.76
2018-06-04T02:19:44.692Z,14.88
2018-06-04T02:20:49.319Z,14.89
2018-06-04T02:21:53.988Z,15.00
2018-06-04T02:22:58.906Z,15.15
2018-06-04T02:24:03.578Z,15.23
2018-06-04T02:25:08.333Z,15.28
2018-06-04T02:26:12.979Z,15.22
2018-06-04T02:27:17.893Z,15.10
2018-06-04T02:28:23.222Z,15.13
2018-06-04T02:29:28.157Z,15.08
2018-06-04T02:30:32.828Z,15.10
2018-06-04T02:31:37.452Z,15.04
2018-06-04T02:32:42.074Z,15.10
2018-06-04T02:33:46.569Z,15.00
2018-06-04T02:34:51.090Z,15.06
2018-06-04T02:35:55.951Z,15.10
2018-06-04T02:37:00.596Z,15.09
2018-06-04T02:38:05.162Z,15.13
2018-06-04T02:39:09.683Z,15.18
2018-06-04T02:40:14.199Z,15.23
2018-06-04T02:41:18.808Z,15.19
2018-06-04T02:42:23.858Z,15.14
2018-06-04T02:43:28.388Z,15.12
2018-06-04T02:44:32.959Z,15.04
2018-06-04T02:45:37.437Z,15.15
2018-06-04T02:46:41.959Z,15.21
2018-06-04T02:47:46.661Z,15.12
2018-06-04T02:48:51.630Z,14.97
2018-06-04T02:49:56.414Z,14.95
2018-06-04T02:51:01.104Z,15.06
2018-06-04T02:52:05.790Z,15.11
2018-06-04T02:53:10.449Z,15.13
2018-06-04T02:54:15.775Z,15.16
2018-06-04T02:55:20.901Z,15.15
2018-06-04T02:56:25.556Z,15.16
2018-06-04T02:57:30.222Z,15.14
2018-06-04T02:58:34.992Z,15.18
2018-06-04T02:59:39.665Z,15.13
2018-06-04T03:00:44.626Z,14.96
2018-06-04T03:01:49.639Z,14.95
2018-06-04T03:02:54.481Z,14.86
2018-06-04T03:03:59.579Z,14.80
2018-06-04T03:05:04.255Z,14.74
2018-06-04T03:06:08.872Z,14.77
2018-06-04T03:07:13.520Z,14.76
2018-06-04T03:08:18.440Z,14.74
2018-06-04T03:09:23.083Z,14.78
2018-06-04T03:10:27.678Z,14.75
2018-06-04T03:11:32.297Z,14.72
2018-06-04T03:12:36.981Z,14.66
2018-06-04T03:13:42.009Z,14.63
2018-06-04T03:14:47.709Z,14.69
2018-06-04T03:15:52.444Z,14.63
2018-06-04T03:16:57.071Z,14.52
2018-06-04T03:18:01.711Z,14.43
2018-06-04T03:19:07.100Z,14.37
2018-06-04T03:20:11.750Z,14.53
2018-06-04T03:21:16.718Z,14.57
2018-06-04T03:22:21.379Z,14.59
2018-06-04T03:23:26.033Z,14.72
2018-06-04T03:24:30.712Z,14.74
2018-06-04T03:25:35.342Z,14.65
2018-06-04T03:26:40.001Z,14.63
2018-06-04T03:27:44.991Z,14.65
2018-06-04T03:28:49.610Z,14.59
2018-06-04T03:29:54.219Z,14.45
2018-06-04T03:30:59.708Z,14.43
2018-06-04T03:32:04.381Z,14.36
2018-06-04T03:33:09.031Z,14.32
2018-06-04T03:34:13.941Z,14.38
2018-06-04T03:35:18.565Z,14.47
2018-06-04T03:36:24.021Z,14.47
2018-06-04T03:37:28.681Z,14.46
2018-06-04T03:38:33.281Z,14.54
2018-06-04T03:39:37.932Z,14.64
2018-06-04T03:40:42.865Z,14.65
2018-06-04T03:41:47.523Z,14.68
2018-06-04T03:42:52.173Z,14.73
2018-06-04T03:43:56.811Z,14.71
2018-06-04T03:45:01.505Z,14.60
2018-06-04T03:46:06.146Z,14.63
2018-06-04T03:47:10.975Z,14.72
2018-06-04T03:48:15.496Z,14.75
2018-06-04T03:49:20.091Z,14.86
2018-06-04T03:50:24.635Z,15.00
2018-06-04T03:51:29.174Z,14.98
2018-06-04T03:52:33.666Z,15.04
2018-06-04T03:53:38.485Z,15.06
2018-06-04T03:54:43.006Z,15.03
2018-06-04T03:55:47.539Z,15.06
2018-06-04T03:56:52.073Z,15.12
2018-06-04T03:57:56.606Z,15.07
2018-06-04T03:59:01.114Z,15.00
2018-06-04T04:00:05.923Z,14.89
2018-06-04T04:01:10.470Z,14.90
2018-06-04T04:02:17.983Z,14.90
2018-06-04T04:03:22.512Z,14.75
2018-06-04T04:04:27.034Z,14.71
2018-06-04T04:05:31.575Z,14.73
2018-06-04T04:06:36.511Z,14.76
2018-06-04T04:07:41.019Z,14.85
2018-06-04T04:08:45.562Z,14.88
2018-06-04T04:09:50.091Z,14.97
2018-06-04T04:10:54.841Z,15.07
2018-06-04T04:11:59.349Z,15.11
2018-06-04T04:13:04.181Z,15.20
2018-06-04T04:14:08.705Z,15.22
2018-06-04T04:15:13.245Z,15.11
2018-06-04T04:16:17.781Z,15.10
2018-06-04T04:17:22.325Z,15.13
2018-06-04T04:18:26.822Z,15.19
2018-06-04T04:19:31.629Z,15.11
2018-06-04T04:20:36.163Z,15.01
2018-06-04T04:21:40.691Z,15.08
2018-06-04T04:22:45.188Z,15.07
2018-06-04T04:23:49.785Z,15.18
2018-06-04T04:24:54.306Z,15.24
2018-06-04T04:25:59.201Z,15.30
2018-06-04T04:27:03.737Z,15.18
2018-06-04T04:28:08.262Z,15.17
2018-06-04T04:29:12.772Z,15.00
2018-06-04T04:30:17.335Z,14.95
2018-06-04T04:31:21.850Z,14.98
2018-06-04T04:32:26.671Z,14.90
2018-06-04T04:33:31.212Z,14.98
2018-06-04T04:34:35.774Z,14.95
2018-06-04T04:35:40.307Z,15.05
2018-06-04T04:36:44.816Z,15.09
2018-06-04T04:37:50.349Z,15.19
2018-06-04T04:38:55.403Z,15.24
2018-06-04T04:40:00.181Z,15.16
2018-06-04T04:41:04.827Z,15.22
2018-06-04T04:42:09.397Z,15.21
2018-06-04T04:43:13.978Z,15.10
2018-06-04T04:44:18.518Z,15.15
2018-06-04T04:45:23.387Z,15.06
2018-06-04T04:46:28.012Z,14.94
2018-06-04T04:47:32.530Z,14.97
2018-06-04T04:48:37.066Z,15.08
2018-06-04T04:49:41.616Z,15.05
2018-06-04T04:50:46.168Z,15.04
2018-06-04T04:51:51.013Z,15.00
2018-06-04T04:52:55.640Z,14.89
2018-06-04T04:54:00.175Z,14.95
2018-06-04T04:55:06.073Z,15.00
2018-06-04T04:56:10.918Z,14.95
2018-06-04T04:57:15.533Z,15.07
2018-06-04T04:58:20.413Z,15.23
2018-06-04T04:59:24.939Z,15.10
2018-06-04T05:00:29.435Z,14.92
2018-06-04T05:01:33.910Z,14.85
2018-06-04T05:02:38.428Z,14.87
2018-06-04T05:03:42.930Z,15.02
2018-06-04T05:04:47.473Z,15.13
2018-06-04T05:05:52.006Z,15.18
2018-06-04T05:06:56.506Z,15.26
2018-06-04T05:08:01.026Z,15.12
2018-06-04T05:09:07.752Z,15.07
2018-06-04T05:10:12.567Z,14.94
2018-06-04T05:11:17.124Z,14.90
2018-06-04T05:12:21.639Z,14.77
2018-06-04T05:13:26.194Z,14.77
2018-06-04T05:14:32.023Z,14.77
2018-06-04T05:15:36.612Z,14.87
2018-06-04T05:16:41.468Z,15.05
2018-06-04T05:17:46.075Z,15.21
2018-06-04T05:18:50.764Z,15.32
2018-06-04T05:19:55.348Z,15.37
2018-06-04T05:20:59.887Z,15.42
2018-06-04T05:22:04.403Z,15.52
2018-06-04T05:23:09.415Z,15.62
2018-06-04T05:24:14.083Z,15.69
2018-06-04T05:25:18.718Z,15.64
2018-06-04T05:26:23.344Z,15.70
2018-06-04T05:27:28.005Z,15.70
2018-06-04T05:28:32.668Z,15.70
2018-06-04T05:29:37.827Z,15.78
2018-06-04T05:30:42.459Z,15.75
2018-06-04T05:31:47.150Z,15.54
2018-06-04T05:32:51.823Z,15.49
2018-06-04T05:33:56.347Z,15.50
2018-06-04T05:35:00.898Z,15.60
2018-06-04T05:36:05.846Z,15.68
2018-06-04T05:37:10.425Z,15.61
2018-06-04T05:38:15.219Z,15.59
2018-06-04T05:39:20.485Z,15.60
2018-06-04T05:40:25.039Z,15.77
2018-06-04T05:41:29.544Z,15.83
2018-06-04T05:42:34.474Z,16.01
2018-06-04T05:43:39.115Z,16.02
2018-06-04T05:44:43.620Z,16.09
2018-06-04T05:45:48.454Z,15.93
2018-06-04T05:46:52.982Z,15.79
2018-06-04T05:47:57.494Z,15.74
2018-06-04T05:49:02.348Z,15.76
2018-06-04T05:50:06.987Z,15.78
2018-06-04T05:51:11.524Z,15.86
2018-06-04T05:52:16.073Z,15.92
2018-06-04T05:53:20.668Z,15.80
2018-06-04T05:54:25.259Z,15.86
2018-06-04T05:55:29.772Z,15.98
2018-06-04T05:56:34.384Z,16.04
2018-06-04T05:57:38.922Z,16.09
2018-06-04T05:58:43.490Z,16.09
2018-06-04T05:59:48.147Z,16.13
2018-06-04T06:00:53.153Z,16.14
2018-06-04T06:01:57.824Z,16.12
2018-06-04T06:03:02.498Z,16.09
2018-06-04T06:04:07.947Z,15.92
2018-06-04T06:05:12.583Z,15.90
2018-06-04T06:06:17.233Z,15.97
2018-06-04T06:07:22.654Z,16.17
2018-06-04T06:08:27.355Z,16.30
2018-06-04T06:09:32.099Z,16.39
2018-06-04T06:10:36.728Z,16.42
2018-06-04T06:11:41.406Z,16.41
2018-06-04T06:12:46.085Z,16.59
2018-06-04T06:13:51.222Z,16.66
2018-06-04T06:14:55.858Z,16.67
2018-06-04T06:16:00.578Z,16.56
2018-06-04T06:17:06.247Z,16.56
2018-06-04T06:18:10.901Z,16.52
2018-06-04T06:19:15.580Z,16.43
2018-06-04T06:20:20.515Z,16.54
2018-06-04T06:21:25.391Z,16.69
2018-06-04T06:22:30.162Z,16.73
2018-06-04T06:23:34.918Z,16.70
2018-06-04T06:24:40.515Z,16.73
2018-06-04T06:25:45.031Z,16.90
2018-06-04T06:26:49.822Z,16.91
2018-06-04T06:27:54.388Z,17.02
2018-06-04T06:28:58.895Z,17.13
2018-06-04T06:30:03.493Z,17.25
2018-06-04T06:31:08.024Z,17.35
2018-06-04T06:32:12.565Z,17.53
2018-06-04T06:33:17.375Z,17.59
2018-06-04T06:34:21.881Z,17.60
2018-06-04T06:35:26.463Z,17.61
2018-06-04T06:36:31.065Z,17.62
2018-06-04T06:37:35.790Z,17.68
2018-06-04T06:38:40.335Z,17.75
2018-06-04T06:39:45.199Z,17.69
2018-06-04T06:40:49.728Z,17.78
2018-06-04T06:41:54.302Z,17.82
2018-06-04T06:42:58.898Z,17.94
2018-06-04T06:44:03.440Z,18.13
2018-06-04T06:45:08.973Z,18.26
2018-06-04T06:46:14.011Z,18.34
2018-06-04T06:47:18.567Z,18.36
2018-06-04T06:48:23.232Z,18.36
2018-06-04T06:49:27.751Z,18.33
2018-06-04T06:50:32.269Z,18.36
2018-06-04T06:51:36.844Z,18.38
2018-06-04T06:52:41.749Z,18.44
2018-06-04T06:53:46.348Z,18.58
2018-06-04T06:54:50.891Z,18.63
2018-06-04T06:55:55.460Z,18.49
2018-06-04T06:56:59.968Z,18.59
2018-06-04T06:58:04.635Z,18.70
2018-06-04T06:59:09.464Z,18.81
2018-06-04T07:00:20.154Z,18.91
2018-06-04T07:01:24.667Z,19.02
2018-06-04T07:02:29.242Z,19.02
2018-06-04T07:03:33.806Z,19.00
2018-06-04T07:04:38.510Z,19.08
2018-06-04T07:05:43.452Z,19.20
2018-06-04T07:06:48.002Z,19.25
2018-06-04T07:07:52.549Z,19.43
2018-06-04T07:08:57.082Z,19.41
2018-06-04T07:10:02.045Z,19.39
2018-06-04T07:11:06.744Z,19.50
2018-06-04T07:12:11.655Z,19.64
2018-06-04T07:13:16.258Z,19.75
2018-06-04T07:14:24.719Z,19.92
2018-06-04T07:15:29.349Z,20.03
2018-06-04T07:16:34.182Z,20.10
2018-06-04T07:17:38.750Z,20.14
2018-06-04T07:18:43.590Z,20.30
2018-06-04T07:19:48.174Z,20.44
2018-06-04T07:20:52.858Z,20.45
2018-06-04T07:21:57.667Z,20.42
2018-06-04T07:23:02.372Z,20.48
2018-06-04T07:24:07.044Z,20.72
2018-06-04T07:25:11.706Z,20.86
2018-06-04T07:26:16.336Z,20.85
2018-06-04T07:27:21.028Z,20.93
2018-06-04T07:28:25.714Z,21.06
2018-06-04T07:29:30.369Z,21.13
2018-06-04T07:30:35.024Z,21.10
2018-06-04T07:31:39.695Z,21.23
2018-06-04T07:32:44.366Z,21.39
2018-06-04T07:33:48.997Z,21.39
2018-06-04T07:34:53.634Z,21.37
2018-06-04T07:36:02.748Z,21.45
2018-06-04T07:37:07.442Z,21.69
2018-06-04T07:38:12.120Z,21.72
2018-06-04T07:39:16.870Z,21.79
2018-06-04T07:40:21.571Z,21.86
2018-06-04T07:41:26.366Z,21.89
2018-06-04T07:42:31.348Z,21.85
2018-06-04T07:43:36.007Z,21.91
2018-06-04T07:44:40.644Z,22.10
2018-06-04T07:45:45.287Z,22.05
2018-06-04T07:46:49.940Z,22.16
2018-06-04T07:47:54.591Z,22.32
2018-06-04T07:48:59.474Z,22.42
2018-06-04T07:50:04.035Z,22.31
2018-06-04T07:51:08.656Z,22.23
2018-06-04T07:52:13.243Z,22.38
2018-06-04T07:53:17.808Z,22.47
2018-06-04T07:54:22.341Z,22.44
2018-06-04T07:55:27.541Z,22.29
2018-06-04T07:56:32.234Z,22.20
2018-06-04T07:57:36.873Z,22.32
2018-06-04T07:58:41.794Z,22.44
2018-06-04T07:59:46.493Z,22.56
2018-06-04T08:00:51.939Z,22.64
2018-06-04T08:01:56.651Z,22.69
2018-06-04T08:03:01.321Z,22.90
2018-06-04T08:04:05.970Z,22.88
2018-06-04T08:05:10.587Z,22.77
2018-06-04T08:06:15.271Z,22.73
2018-06-04T08:07:20.020Z,22.72
2018-06-04T08:08:25.054Z,22.51
2018-06-04T08:09:29.696Z,22.33
2018-06-04T08:10:34.377Z,22.53
2018-06-04T08:11:39.063Z,22.64
2018-06-04T08:12:45.705Z,22.82
2018-06-04T08:13:50.387Z,22.82
2018-06-04T08:14:55.480Z,22.59
2018-06-04T08:16:00.242Z,22.73
2018-06-04T08:17:05.158Z,22.93
2018-06-04T08:18:09.867Z,22.68
2018-06-04T08:19:14.646Z,22.89
2018-06-04T08:20:19.312Z,23.02
2018-06-04T08:21:24.624Z,23.22
2018-06-04T08:22:29.298Z,23.30
2018-06-04T08:23:33.955Z,23.10
2018-06-04T08:24:38.636Z,23.18
2018-06-04T08:25:43.384Z,23.45
2018-06-04T08:26:47.992Z,23.61
2018-06-04T08:27:52.945Z,23.79
2018-06-04T08:28:58.206Z,23.73
2018-06-04T08:30:03.265Z,23.74
2018-06-04T08:31:14.867Z,23.94
2018-06-04T08:32:19.713Z,23.57
2018-06-04T08:33:24.420Z,23.50
2018-06-04T08:34:30.203Z,23.14
2018-06-04T08:35:34.735Z,23.20
2018-06-04T08:36:39.337Z,23.45
2018-06-04T08:37:43.907Z,23.62
2018-06-04T08:38:48.736Z,23.89
2018-06-04T08:39:53.295Z,24.09
2018-06-04T08:40:58.276Z,24.13
2018-06-04T08:42:02.841Z,24.27
2018-06-04T08:43:07.436Z,24.25
2018-06-04T08:44:11.971Z,24.14
2018-06-04T08:45:16.522Z,24.30
2018-06-04T08:46:21.050Z,24.32
2018-06-04T08:47:25.934Z,24.55
2018-06-04T08:48:30.528Z,24.34
2018-06-04T08:49:35.097Z,24.31
2018-06-04T08:50:39.727Z,24.48
2018-06-04T08:51:44.247Z,24.49
2018-06-04T08:52:48.771Z,24.65
2018-06-04T08:53:53.385Z,24.81
2018-06-04T08:54:57.904Z,24.72
2018-06-04T08:56:02.490Z,24.68
2018-06-04T08:57:07.040Z,24.60
2018-06-04T08:58:11.627Z,24.63
2018-06-04T08:59:16.240Z,24.65
2018-06-04T09:00:20.765Z,24.60
2018-06-04T09:01:25.270Z,24.38
2018-06-04T09:02:29.919Z,24.15
2018-06-04T09:03:34.540Z,23.83
2018-06-04T09:04:39.735Z,23.68
2018-06-04T09:05:44.410Z,23.92
2018-06-04T09:06:49.108Z,24.20
2018-06-04T09:07:54.020Z,24.71
2018-06-04T09:08:58.708Z,24.95
2018-06-04T09:10:03.352Z,24.94
2018-06-04T09:11:07.920Z,24.86
2018-06-04T09:12:12.560Z,25.04
2018-06-04T09:13:17.802Z,25.14
2018-06-04T09:14:23.667Z,25.12
2018-06-04T09:15:29.840Z,25.26
2018-06-04T09:16:35.495Z,25.45
2018-06-04T09:17:40.655Z,25.46
2018-06-04T09:18:46.056Z,25.44
2018-06-04T09:19:51.548Z,25.83
2018-06-04T09:20:57.910Z,25.79
2018-06-04T09:22:03.004Z,25.65
2018-06-04T09:23:08.871Z,25.73
2018-06-04T09:24:14.683Z,25.82
2018-06-04T09:25:19.365Z,25.77
2018-06-04T09:26:23.979Z,25.80
2018-06-04T09:27:28.537Z,25.94
2018-06-04T09:28:33.128Z,25.64
2018-06-04T09:29:38.189Z,25.15
2018-06-04T09:30:43.017Z,25.32
2018-06-04T09:31:48.629Z,25.34
2018-06-04T09:32:53.196Z,24.91
2018-06-04T09:33:57.751Z,25.03
2018-06-04T09:35:02.684Z,25.00
2018-06-04T09:36:07.647Z,24.67
2018-06-04T09:37:12.331Z,24.73
2018-06-04T09:38:17.874Z,25.15
2018-06-04T09:39:23.201Z,25.35
2018-06-04T09:40:27.853Z,25.18
2018-06-04T09:41:32.619Z,25.30
2018-06-04T09:42:37.705Z,25.33
2018-06-04T09:43:42.449Z,25.11
2018-06-04T09:44:47.828Z,25.16
2018-06-04T09:45:52.401Z,24.95
2018-06-04T09:46:57.603Z,24.93
2018-06-04T09:48:02.177Z,25.08
2018-06-04T09:49:07.981Z,24.83
2018-06-04T09:50:14.377Z,25.16
2018-06-04T09:51:18.964Z,25.58
2018-06-04T09:52:23.529Z,25.55
2018-06-04T09:53:28.337Z,25.81
2018-06-04T09:54:33.667Z,25.66
2018-06-04T09:55:38.286Z,25.72
2018-06-04T09:56:42.956Z,26.04
2018-06-04T09:57:47.758Z,26.12
2018-06-04T09:58:52.386Z,26.32
2018-06-04T09:59:57.053Z,26.45
2018-06-04T10:01:02.248Z,26.71
2018-06-04T10:02:07.033Z,26.97
2018-06-04T10:03:11.809Z,27.00
2018-06-04T10:04:16.485Z,27.03
2018-06-04T10:05:22.281Z,26.91
2018-06-04T10:06:27.097Z,26.63
2018-06-04T10:07:32.991Z,26.52
2018-06-04T10:08:37.509Z,26.63
2018-06-04T10:09:42.584Z,26.30
2018-06-04T10:10:47.180Z,26.41
2018-06-04T10:11:51.750Z,26.67
2018-06-04T10:12:56.530Z,26.79
2018-06-04T10:14:01.962Z,26.92
2018-06-04T10:15:06.572Z,26.75
2018-06-04T10:16:11.607Z,27.06
2018-06-04T10:17:17.268Z,27.20
2018-06-04T10:18:22.628Z,27.21
2018-06-04T10:19:27.408Z,27.49
2018-06-04T10:20:32.380Z,27.46
2018-06-04T10:21:36.926Z,27.30
2018-06-04T10:22:41.533Z,27.43
2018-06-04T10:23:46.332Z,27.52
2018-06-04T10:24:51.287Z,27.67
2018-06-04T10:25:55.869Z,27.81
2018-06-04T10:27:01.177Z,27.93
2018-06-04T10:28:06.073Z,27.16
2018-06-04T10:29:10.916Z,26.96
2018-06-04T10:30:15.554Z,27.10
2018-06-04T10:31:20.261Z,27.25
2018-06-04T10:32:24.846Z,27.37
2018-06-04T10:33:29.748Z,27.44
2018-06-04T10:34:34.411Z,27.23
2018-06-04T10:35:39.123Z,27.06
2018-06-04T10:36:43.717Z,27.26
2018-06-04T10:37:48.302Z,27.34
2018-06-04T10:38:52.904Z,27.31
2018-06-04T10:39:57.816Z,27.01
2018-06-04T10:41:02.422Z,26.90
2018-06-04T10:42:06.978Z,26.96
2018-06-04T10:43:11.673Z,27.12
2018-06-04T10:44:16.275Z,27.06
2018-06-04T10:45:21.447Z,26.97
2018-06-04T10:46:26.347Z,27.24
2018-06-04T10:47:30.869Z,26.87
2018-06-04T10:48:35.394Z,26.73
2018-06-04T10:49:39.900Z,26.96
2018-06-04T10:50:44.575Z,26.75
2018-06-04T10:51:49.163Z,26.99
2018-06-04T10:52:54.274Z,26.61
2018-06-04T10:53:58.844Z,26.58
2018-06-04T10:55:03.416Z,26.74
2018-06-04T10:56:08.073Z,27.26
2018-06-04T10:57:12.733Z,27.52
2018-06-04T10:58:17.279Z,27.17
2018-06-04T10:59:22.252Z,26.84
2018-06-04T11:00:26.851Z,26.09
2018-06-04T11:01:31.414Z,25.69
2018-06-04T11:02:35.964Z,25.21
2018-06-04T11:03:40.488Z,25.51
2018-06-04T11:04:45.082Z,25.46
2018-06-04T11:05:49.981Z,25.38
2018-06-04T11:06:54.557Z,25.49
2018-06-04T11:07:59.215Z,24.78
2018-06-04T11:09:04.327Z,24.82
2018-06-04T11:10:08.958Z,25.14
2018-06-04T11:11:13.545Z,25.45
2018-06-04T11:12:18.365Z,25.72
2018-06-04T11:13:23.199Z,25.84
2018-06-04T11:14:27.862Z,25.75
2018-06-04T11:15:33.199Z,25.93
2018-06-04T11:16:37.893Z,26.08
2018-06-04T11:17:43.050Z,25.99
2018-06-04T11:18:47.761Z,26.21
2018-06-04T11:19:52.571Z,26.50
2018-06-04T11:20:57.409Z,26.66
2018-06-04T11:22:02.114Z,27.01
2018-06-04T11:23:06.849Z,27.10
2018-06-04T11:24:12.084Z,27.41
2018-06-04T11:25:17.155Z,27.70
2018-06-04T11:26:21.977Z,27.71
2018-06-04T11:27:26.652Z,27.63
2018-06-04T11:28:31.537Z,27.76
2018-06-04T11:29:36.249Z,27.48
2018-06-04T11:30:42.295Z,27.07
2018-06-04T11:31:47.621Z,27.16
2018-06-04T11:32:52.397Z,27.52
2018-06-04T11:34:02.239Z,28.02
2018-06-04T11:35:06.921Z,28.23
2018-06-04T11:36:13.521Z,28.52
2018-06-04T11:37:19.942Z,28.53
2018-06-04T11:38:26.509Z,28.20
2018-06-04T11:39:31.827Z,28.14
2018-06-04T11:40:36.552Z,28.35
2018-06-04T11:41:41.159Z,28.52
2018-06-04T11:42:45.783Z,28.67
2018-06-04T11:43:51.282Z,28.57
2018-06-04T11:44:55.927Z,27.52
2018-06-04T11:46:01.020Z,26.91
2018-06-04T11:47:05.575Z,27.28
2018-06-04T11:48:10.168Z,27.08
2018-06-04T11:49:16.256Z,26.87
2018-06-04T11:50:23.061Z,26.60
2018-06-04T11:51:27.664Z,26.44
2018-06-04T11:52:34.432Z,27.03
2018-06-04T11:53:39.387Z,26.65
2018-06-04T11:54:44.683Z,25.97
2018-06-04T11:55:49.772Z,26.65
2018-06-04T11:56:54.677Z,27.45
2018-06-04T11:58:01.261Z,27.43
2018-06-04T11:59:10.677Z,27.08
2018-06-04T12:00:16.226Z,27.47
2018-06-04T12:01:23.417Z,27.54
2018-06-04T12:02:28.341Z,28.04
2018-06-04T12:03:33.717Z,28.67
2018-06-04T12:04:39.067Z,28.95
2018-06-04T12:05:43.731Z,28.91
2018-06-04T12:06:48.640Z,29.08
2018-06-04T12:07:56.110Z,29.05
2018-06-04T12:09:00.684Z,28.61
2018-06-04T12:10:05.492Z,28.34
2018-06-04T12:11:11.745Z,28.20
2018-06-04T12:12:16.351Z,27.97
2018-06-04T12:13:22.552Z,28.39
2018-06-04T12:14:27.374Z,28.65
2018-06-04T12:15:32.986Z,28.52
2018-06-04T12:16:38.053Z,28.37
2018-06-04T12:17:44.123Z,28.06
2018-06-04T12:18:49.336Z,27.84
2018-06-04T12:19:53.908Z,27.64
2018-06-04T12:21:00.113Z,28.08
2018-06-04T12:22:04.637Z,28.32
2018-06-04T12:23:09.253Z,27.75
2018-06-04T12:24:13.800Z,27.07
2018-06-04T12:25:19.367Z,26.86
2018-06-04T12:26:24.265Z,26.76
2018-06-04T12:27:29.929Z,27.00
2018-06-04T12:28:35.239Z,27.38
2018-06-04T12:29:41.727Z,27.68
2018-06-04T12:30:48.445Z,27.82
2018-06-04T12:31:53.706Z,27.87
2018-06-04T12:32:59.485Z,27.92
2018-06-04T12:34:08.093Z,27.97
2018-06-04T12:35:12.650Z,27.97
2018-06-04T12:36:19.371Z,27.54
2018-06-04T12:37:24.329Z,27.70
2018-06-04T12:38:30.967Z,28.02
2018-06-04T12:39:39.494Z,27.85
2018-06-04T12:40:46.175Z,27.86
2018-06-04T12:41:50.845Z,27.93
2018-06-04T12:42:55.422Z,28.04
2018-06-04T12:44:00.104Z,27.92
2018-06-04T12:45:04.783Z,27.92
2018-06-04T12:46:09.455Z,27.68
2018-06-04T12:47:15.048Z,27.65
2018-06-04T12:48:19.581Z,27.65
2018-06-04T12:49:25.173Z,27.64
2018-06-04T12:50:30.794Z,27.55
2018-06-04T12:51:35.570Z,27.66
2018-06-04T12:52:40.302Z,27.82
2018-06-04T12:53:45.444Z,27.71
2018-06-04T12:54:50.145Z,27.72
2018-06-04T12:55:55.636Z,27.70
2018-06-04T12:57:02.357Z,27.58
2018-06-04T12:58:07.016Z,27.68
2018-06-04T12:59:11.813Z,27.40
2018-06-04T13:00:17.225Z,27.44
2018-06-04T13:01:22.830Z,27.39
2018-06-04T13:02:29.012Z,27.31
2018-06-04T13:03:34.302Z,27.31
2018-06-04T13:04:42.933Z,27.43
2018-06-04T13:05:47.869Z,27.53
2018-06-04T13:06:52.878Z,27.44
2018-06-04T13:07:58.206Z,27.56
2018-06-04T13:09:04.589Z,27.54
2018-06-04T13:10:09.941Z,27.56
2018-06-04T13:11:16.349Z,27.59
2018-06-04T13:12:23.837Z,27.54
2018-06-04T13:13:29.649Z,27.55
2018-06-04T13:14:35.177Z,27.23
2018-06-04T13:15:40.678Z,27.18
2018-06-04T13:16:45.886Z,27.03
2018-06-04T13:17:51.406Z,27.01
2018-06-04T13:18:55.916Z,26.88
2018-06-04T13:20:01.002Z,26.94
2018-06-04T13:21:05.612Z,27.13
2018-06-04T13:22:10.355Z,27.55
2018-06-04T13:23:15.001Z,27.99
2018-06-04T13:24:19.811Z,28.19
2018-06-04T13:25:25.270Z,28.17
2018-06-04T13:26:31.780Z,28.05
2018-06-04T13:27:37.876Z,27.93
2018-06-04T13:28:43.019Z,27.92
2018-06-04T13:29:49.189Z,27.87
2018-06-04T13:30:53.920Z,27.65
2018-06-04T13:31:58.754Z,27.46
2018-06-04T13:33:03.779Z,27.50
2018-06-04T13:34:09.298Z,27.50
2018-06-04T13:35:18.780Z,27.48
2018-06-04T13:36:26.404Z,27.62
2018-06-04T13:37:33.719Z,27.95
2018-06-04T13:38:38.404Z,27.80
2018-06-04T13:39:43.420Z,27.82
2018-06-04T13:40:50.360Z,27.74
2018-06-04T13:41:55.352Z,27.58
2018-06-04T13:43:00.160Z,27.53
2018-06-04T13:44:06.346Z,27.71
2018-06-04T13:45:12.329Z,28.04
2018-06-04T13:46:18.153Z,28.17
2018-06-04T13:47:22.865Z,28.32
2018-06-04T13:48:27.807Z,28.63
2018-06-04T13:49:33.404Z,28.95
2018-06-04T13:50:38.186Z,29.12
2018-06-04T13:51:43.021Z,29.19
2018-06-04T13:52:50.941Z,29.11
2018-06-04T13:53:56.698Z,29.24
2018-06-04T13:55:01.313Z,29.38
2018-06-04T13:56:06.408Z,29.25